createdAt,value
2023-04-19T00:00:22.018Z,102561.94
2023-04-19T00:02:52.758Z,102562.66
2023-04-19T00:05:23.268Z,102561.94
2023-04-19T00:07:53.628Z,102558.03
2023-04-19T00:10:23.640Z,102561.94
2023-04-19T00:12:51.851Z,102563.38
2023-04-19T00:15:21.210Z,102552.69
2023-04-19T00:17:51.450Z,102563.38
2023-04-19T00:20:21.814Z,102561.94
2023-04-19T00:22:52.336Z,102551.25
2023-04-19T00:25:21.380Z,102557.31
2023-04-19T00:27:49.989Z,102547.38
2023-04-19T00:30:18.313Z,102547.38
2023-04-19T00:32:48.374Z,102547.38
2023-04-19T00:35:20.982Z,102546.19
2023-04-19T00:37:50.537Z,102540.56
2023-04-19T00:40:19.473Z,102546.63
2023-04-19T00:42:49.756Z,102551.97
2023-04-19T00:45:19.656Z,102546.63
2023-04-19T00:47:49.832Z,102542.03
2023-04-19T00:50:20.864Z,102538.63
2023-04-19T00:52:50.527Z,102533.28
2023-04-19T00:55:19.380Z,102535.22
2023-04-19T00:57:49.821Z,102543.25
2023-04-19T01:00:19.239Z,102540.56
2023-04-19T01:02:48.261Z,102539.81
2023-04-19T01:05:20.505Z,102534.50
2023-04-19T01:07:50.887Z,102533.75
2023-04-19T01:10:20.738Z,102531.06
2023-04-19T01:12:51.204Z,102532.31
2023-04-19T01:15:19.425Z,102529.66
2023-04-19T01:17:50.912Z,102526.97
2023-04-19T01:20:19.582Z,102528.16
2023-04-19T01:22:47.887Z,102530.84
2023-04-19T01:25:18.294Z,102530.09
2023-04-19T01:27:48.616Z,102525.50
2023-04-19T01:30:18.483Z,102526.72
2023-04-19T01:32:48.833Z,102529.38
2023-04-19T01:35:19.113Z,102527.91
2023-04-19T01:37:48.858Z,102534.00
2023-04-19T01:40:18.732Z,102527.91
2023-04-19T01:42:48.691Z,102527.91
2023-04-19T01:45:19.054Z,102529.16
2023-04-19T01:47:51.600Z,102528.41
2023-04-19T01:50:20.590Z,102530.34
2023-04-19T01:52:50.478Z,102534.22
2023-04-19T01:55:20.501Z,102535.19
2023-04-19T01:57:49.648Z,102532.28
2023-04-19T02:00:19.737Z,102533.50
2023-04-19T02:02:49.991Z,102535.41
2023-04-19T02:05:19.405Z,102531.31
2023-04-19T02:07:49.254Z,102535.19
2023-04-19T02:10:19.603Z,102536.66
2023-04-19T02:12:49.540Z,102535.19
2023-04-19T02:15:19.425Z,102528.34
2023-04-19T02:17:49.066Z,102526.91
2023-04-19T02:20:17.378Z,102537.59
2023-04-19T02:22:45.633Z,102526.91
2023-04-19T02:25:15.565Z,102537.59
2023-04-19T02:27:47.402Z,102536.09
2023-04-19T02:30:19.121Z,102541.44
2023-04-19T02:32:49.579Z,102537.34
2023-04-19T02:35:19.504Z,102542.69
2023-04-19T02:37:48.987Z,102540.00
2023-04-19T02:40:19.550Z,102538.53
2023-04-19T02:42:49.885Z,102544.63
2023-04-19T02:45:19.724Z,102541.69
2023-04-19T02:47:49.784Z,102540.94
2023-04-19T02:50:19.203Z,102539.50
2023-04-19T02:52:50.625Z,102535.59
2023-04-19T02:55:22.199Z,102539.50
2023-04-19T02:58:01.281Z,102534.91
2023-04-19T03:00:31.431Z,102546.03
2023-04-19T03:03:07.678Z,102533.44
2023-04-19T03:05:36.139Z,102536.84
2023-04-19T03:08:06.567Z,102530.03
2023-04-19T03:10:36.048Z,102534.66
2023-04-19T03:13:05.990Z,102532.69
2023-04-19T03:15:36.319Z,102532.69
2023-04-19T03:18:07.035Z,102522.00
2023-04-19T03:20:38.784Z,102525.91
2023-04-19T03:23:09.092Z,102520.56
2023-04-19T03:25:40.551Z,102520.56
2023-04-19T03:28:26.199Z,102528.56
2023-04-19T03:31:13.036Z,102531.22
2023-04-19T03:33:43.122Z,102524.41
2023-04-19T03:36:14.565Z,102515.22
2023-04-19T03:38:27.092Z,102364.69
2023-04-19T03:38:45.126Z,102516.66
2023-04-19T03:41:18.606Z,102508.91
2023-04-19T03:43:43.767Z,102362.47
2023-04-19T03:43:54.798Z,102513.78
2023-04-19T03:46:25.776Z,102513.78
2023-04-19T03:48:56.004Z,102524.00
2023-04-19T03:48:58.822Z,102363.75
2023-04-19T03:51:25.841Z,102518.66
2023-04-19T03:53:55.697Z,102513.31
2023-04-19T03:54:14.793Z,102371.91
2023-04-19T03:56:25.905Z,102522.75
2023-04-19T03:58:55.873Z,102519.63
2023-04-19T03:59:30.058Z,102364.91
2023-04-19T04:01:25.870Z,102517.69
2023-04-19T04:03:57.346Z,102520.63
2023-04-19T04:04:46.002Z,102370.19
2023-04-19T04:06:27.391Z,102523.31
2023-04-19T04:08:57.857Z,102523.53
2023-04-19T04:10:02.759Z,102358.41
2023-04-19T04:11:26.889Z,102523.81
2023-04-19T04:13:57.234Z,102521.66
2023-04-19T04:15:23.707Z,102368.13
2023-04-19T04:16:29.995Z,102525.00
2023-04-19T04:18:59.876Z,102516.97
2023-04-19T04:20:40.723Z,102365.97
2023-04-19T04:21:31.978Z,102516.31
2023-04-19T04:24:03.849Z,102520.66
2023-04-19T04:25:55.493Z,102364.59
2023-04-19T04:26:58.603Z,102519.41
2023-04-19T04:29:30.407Z,102519.63
2023-04-19T04:31:39.756Z,102364.00
2023-04-19T04:32:02.038Z,102521.56
2023-04-19T04:34:37.808Z,102510.88
2023-04-19T04:36:58.072Z,102363.84
2023-04-19T04:37:12.285Z,102513.81
2023-04-19T04:39:42.180Z,102509.97
2023-04-19T04:42:12.145Z,102512.63
2023-04-19T04:42:13.753Z,102364.94
2023-04-19T04:44:42.226Z,102515.31
2023-04-19T04:47:12.240Z,102509.97
2023-04-19T04:47:29.871Z,102363.25
2023-04-19T04:49:48.136Z,102504.63
2023-04-19T04:52:17.934Z,102514.06
2023-04-19T04:52:46.709Z,102357.25
2023-04-19T04:54:58.932Z,102517.47
2023-04-19T04:57:32.713Z,102518.22
2023-04-19T04:58:09.743Z,102367.56
2023-04-19T05:00:03.648Z,102514.31
2023-04-19T05:02:41.647Z,102518.47
2023-04-19T05:03:36.810Z,102360.47
2023-04-19T05:05:11.084Z,102519.91
2023-04-19T05:07:41.092Z,102514.56
2023-04-19T05:08:57.113Z,102370.78
2023-04-19T05:10:09.891Z,102521.66
2023-04-19T05:12:45.806Z,102520.16
2023-04-19T05:14:16.251Z,102370.00
2023-04-19T05:15:16.513Z,102517.72
2023-04-19T05:17:51.456Z,102524.56
2023-04-19T05:19:33.739Z,102372.78
2023-04-19T05:20:21.926Z,102526.00
2023-04-19T05:22:59.710Z,102527.47
2023-04-19T05:24:49.855Z,102378.00
2023-04-19T05:25:28.456Z,102529.66
2023-04-19T05:27:58.001Z,102525.75
2023-04-19T05:30:04.786Z,102383.53
2023-04-19T05:30:30.241Z,102525.75
2023-04-19T05:32:58.471Z,102529.41
2023-04-19T05:35:23.784Z,102378.00
2023-04-19T05:35:27.373Z,102537.69
2023-04-19T05:37:56.870Z,102535.25
2023-04-19T05:40:26.810Z,102528.47
2023-04-19T05:40:38.835Z,102380.78
2023-04-19T05:42:59.651Z,102540.34
2023-04-19T05:45:32.753Z,102539.88
2023-04-19T05:45:54.812Z,102387.09
2023-04-19T05:48:03.172Z,102537.47
2023-04-19T05:50:59.272Z,102527.06
2023-04-19T05:51:10.773Z,102382.78
2023-04-19T05:53:47.839Z,102531.88
2023-04-19T05:56:16.940Z,102529.47
2023-04-19T05:56:44.787Z,102372.16
2023-04-19T05:58:46.642Z,102534.31
2023-04-19T06:01:15.062Z,102535.31
2023-04-19T06:02:00.183Z,102389.22
2023-04-19T06:03:44.914Z,102527.53
2023-04-19T06:06:15.053Z,102525.59
2023-04-19T06:07:27.421Z,102376.16
2023-04-19T06:08:45.890Z,102531.22
2023-04-19T06:11:26.575Z,102529.50
2023-04-19T06:12:46.775Z,102366.00
2023-04-19T06:14:01.694Z,102529.28
2023-04-19T06:16:30.327Z,102533.41
2023-04-19T06:18:02.692Z,102377.09
2023-04-19T06:18:59.943Z,102532.91
2023-04-19T06:21:29.432Z,102535.13
2023-04-19T06:23:17.751Z,102381.81
2023-04-19T06:23:59.892Z,102531.97
2023-04-19T06:26:30.245Z,102531.00
2023-04-19T06:28:33.100Z,102385.81
2023-04-19T06:29:00.109Z,102535.34
2023-04-19T06:31:30.570Z,102538.28
2023-04-19T06:33:48.527Z,102380.75
2023-04-19T06:34:00.299Z,102535.84
2023-04-19T06:36:29.208Z,102542.69
2023-04-19T06:38:58.543Z,102537.34
2023-04-19T06:39:03.495Z,102391.84
2023-04-19T06:41:28.611Z,102544.13
2023-04-19T06:43:57.419Z,102536.59
2023-04-19T06:44:18.784Z,102397.06
2023-04-19T06:46:27.972Z,102542.19
2023-04-19T06:49:03.562Z,102538.81
2023-04-19T06:49:33.514Z,102391.53
2023-04-19T06:51:33.790Z,102547.06
2023-04-19T06:54:04.048Z,102546.13
2023-04-19T06:54:48.777Z,102397.06
2023-04-19T06:56:33.918Z,102536.88
2023-04-19T06:59:03.022Z,102544.63
2023-04-19T07:00:03.737Z,102395.53
2023-04-19T07:01:31.436Z,102549.78
2023-04-19T07:04:01.993Z,102556.81
2023-04-19T07:05:18.818Z,102400.28
2023-04-19T07:06:31.806Z,102549.03
2023-04-19T07:09:02.182Z,102548.53
2023-04-19T07:10:33.579Z,102386.88
2023-04-19T07:11:32.460Z,102545.66
2023-04-19T07:14:01.847Z,102552.94
2023-04-19T07:15:48.530Z,102396.44
2023-04-19T07:16:31.295Z,102544.66
2023-04-19T07:19:01.724Z,102544.19
2023-04-19T07:21:03.727Z,102383.81
2023-04-19T07:21:32.002Z,102547.59
2023-04-19T07:24:01.600Z,102544.69
2023-04-19T07:26:18.825Z,102392.88
2023-04-19T07:26:30.351Z,102548.56
2023-04-19T07:29:00.632Z,102547.56
2023-04-19T07:31:30.641Z,102562.63
2023-04-19T07:31:33.738Z,102401.66
2023-04-19T07:33:59.445Z,102549.44
2023-04-19T07:36:29.908Z,102543.09
2023-04-19T07:36:49.139Z,102390.13
2023-04-19T07:39:00.239Z,102541.31
2023-04-19T07:41:29.749Z,102539.56
2023-04-19T07:42:05.264Z,102395.38
2023-04-19T07:43:58.478Z,102543.63
2023-04-19T07:46:27.908Z,102542.34
2023-04-19T07:47:20.832Z,102394.13
2023-04-19T07:48:57.824Z,102548.13
2023-04-19T07:51:26.779Z,102549.47
2023-04-19T07:52:36.103Z,102393.34
2023-04-19T07:53:57.167Z,102545.75
2023-04-19T07:56:27.170Z,102553.72
2023-04-19T07:57:51.795Z,102386.75
2023-04-19T07:59:06.832Z,102554.31
2023-04-19T08:01:37.260Z,102551.06
2023-04-19T08:03:07.104Z,102394.59
2023-04-19T08:04:06.567Z,102553.66
2023-04-19T08:06:37.030Z,102549.84
2023-04-19T08:08:22.897Z,102398.59
2023-04-19T08:09:07.330Z,102543.34
2023-04-19T08:11:37.599Z,102554.06
2023-04-19T08:13:38.705Z,102380.44
2023-04-19T08:14:18.513Z,102544.13
2023-04-19T08:17:22.386Z,102552.34
2023-04-19T08:18:54.567Z,102392.69
2023-04-19T08:19:44.516Z,102556.59
2023-04-19T08:22:14.894Z,102552.47
2023-04-19T08:24:09.738Z,102393.47
2023-04-19T08:24:44.977Z,102551.81
2023-04-19T08:27:13.406Z,102543.03
2023-04-19T08:29:24.757Z,102390.28
2023-04-19T08:29:41.638Z,102540.81
2023-04-19T08:32:11.149Z,102555.16
2023-04-19T08:34:39.520Z,102393.81
2023-04-19T08:34:40.567Z,102545.06
2023-04-19T08:37:10.216Z,102543.47
2023-04-19T08:39:38.724Z,102546.88
2023-04-19T08:39:54.839Z,102375.22
2023-04-19T08:42:13.454Z,102543.31
2023-04-19T08:45:17.074Z,102538.63
2023-04-19T08:45:27.156Z,102376.59
2023-04-19T08:47:56.409Z,102533.56
2023-04-19T08:50:56.423Z,102373.97
2023-04-19T08:53:12.255Z,102541.72
2023-04-19T08:56:31.987Z,102381.81
2023-04-19T08:58:57.066Z,102539.00
2023-04-19T09:01:50.787Z,102374.28
2023-04-19T09:04:07.398Z,102536.53
2023-04-19T09:06:45.573Z,102542.19
2023-04-19T09:07:05.880Z,102385.34
2023-04-19T09:09:28.809Z,102532.78
2023-04-19T09:12:03.831Z,102540.06
2023-04-19T09:12:20.849Z,102382.56
2023-04-19T09:14:33.334Z,102529.03
2023-04-19T09:17:03.689Z,102534.31
2023-04-19T09:17:35.786Z,102364.28
2023-04-19T09:19:33.633Z,102534.84
2023-04-19T09:22:03.717Z,102536.06
2023-04-19T09:22:50.814Z,102381.66
2023-04-19T09:24:49.690Z,102529.56
2023-04-19T09:27:20.527Z,102527.38
2023-04-19T09:28:05.563Z,102374.91
2023-04-19T09:29:50.818Z,102535.88
2023-04-19T09:32:21.275Z,102531.59
2023-04-19T09:33:20.985Z,102376.44
2023-04-19T09:34:51.679Z,102531.41
2023-04-19T09:37:38.979Z,102534.00
2023-04-19T09:38:36.795Z,102376.00
2023-04-19T09:40:10.598Z,102522.28
2023-04-19T09:44:07.430Z,102373.97
2023-04-19T09:47:59.346Z,102526.81
2023-04-19T09:49:37.719Z,102364.16
2023-04-19T09:50:28.762Z,102534.63
2023-04-19T09:52:57.153Z,102527.50
2023-04-19T09:55:03.171Z,102360.59
2023-04-19T09:55:29.046Z,102531.22
2023-04-19T09:58:00.716Z,102517.47
2023-04-19T10:00:21.825Z,102351.97
2023-04-19T10:00:35.993Z,102515.31
2023-04-19T10:03:12.000Z,102512.84
2023-04-19T10:05:36.967Z,102351.22
2023-04-19T10:05:41.595Z,102506.56
2023-04-19T10:08:11.837Z,102511.16
2023-04-19T10:10:41.890Z,102513.09
2023-04-19T10:10:52.820Z,102348.44
2023-04-19T10:16:11.603Z,102521.22
2023-04-19T10:16:18.060Z,102359.06
2023-04-19T10:18:45.390Z,102505.75
2023-04-19T10:21:15.442Z,102507.44
2023-04-19T10:21:33.781Z,102349.97
2023-04-19T10:23:44.179Z,102504.09
2023-04-19T10:26:17.032Z,102513.13
2023-04-19T10:26:48.769Z,102336.13
2023-04-19T10:28:46.973Z,102503.66
2023-04-19T10:31:16.214Z,102508.47
2023-04-19T10:32:04.141Z,102344.00
2023-04-19T10:33:46.577Z,102498.06
2023-04-19T10:36:15.877Z,102502.09
2023-04-19T10:37:20.072Z,102336.31
2023-04-19T10:38:45.941Z,102496.47
2023-04-19T10:41:17.143Z,102499.94
2023-04-19T10:42:36.195Z,102335.09
2023-04-19T10:43:47.222Z,102507.47
2023-04-19T10:46:15.927Z,102497.03
2023-04-19T10:47:51.854Z,102339.22
2023-04-19T10:48:46.318Z,102503.72
2023-04-19T10:51:16.874Z,102503.69
2023-04-19T10:53:06.795Z,102329.69
2023-04-19T10:53:45.869Z,102504.31
2023-04-19T10:56:14.400Z,102497.91
2023-04-19T10:58:21.630Z,102328.16
2023-04-19T10:58:43.075Z,102492.97
2023-04-19T11:01:13.381Z,102483.63
2023-04-19T11:03:36.902Z,102313.06
2023-04-19T11:03:43.497Z,102474.97
2023-04-19T11:06:13.372Z,102486.94
2023-04-19T11:08:42.914Z,102474.06
2023-04-19T11:08:51.858Z,102302.75
2023-04-19T11:11:13.652Z,102478.00
2023-04-19T11:13:43.341Z,102472.22
2023-04-19T11:14:07.051Z,102301.06
2023-04-19T11:16:13.782Z,102472.69
2023-04-19T11:18:44.135Z,102471.97
2023-04-19T11:19:22.807Z,102293.03
2023-04-19T11:21:14.589Z,102470.63
2023-04-19T11:23:44.112Z,102462.84
2023-04-19T11:24:37.868Z,102294.31
2023-04-19T11:26:14.399Z,102456.28
2023-04-19T11:28:45.384Z,102456.81
2023-04-19T11:29:52.776Z,102279.97
2023-04-19T11:31:14.585Z,102455.56
2023-04-19T11:33:43.811Z,102446.34
2023-04-19T11:35:07.801Z,102272.00
2023-04-19T11:36:12.497Z,102437.22
2023-04-19T11:38:42.801Z,102434.91
2023-04-19T11:40:23.928Z,102264.75
2023-04-19T11:41:13.061Z,102433.78
2023-04-19T11:43:43.414Z,102433.78
2023-04-19T11:45:40.083Z,102261.34
2023-04-19T11:46:13.489Z,102433.56
2023-04-19T11:48:42.300Z,102430.81
2023-04-19T11:50:55.840Z,102256.91
2023-04-19T11:51:12.236Z,102423.31
2023-04-19T11:53:41.164Z,102430.97
2023-04-19T11:56:10.613Z,102425.47
2023-04-19T11:56:10.770Z,102248.09
2023-04-19T11:58:39.751Z,102413.34
2023-04-19T12:01:08.500Z,102413.28
2023-04-19T12:01:25.790Z,102234.59
2023-04-19T12:03:38.881Z,102416.69
2023-04-19T12:06:09.527Z,102414.78
2023-04-19T12:06:40.947Z,102246.72
2023-04-19T12:08:39.023Z,102412.25
2023-04-19T12:11:08.793Z,102409.13
2023-04-19T12:11:55.802Z,102234.72
2023-04-19T12:13:37.177Z,102403.78
2023-04-19T12:16:06.604Z,102409.44
2023-04-19T12:17:10.868Z,102248.09
2023-04-19T12:18:37.102Z,102400.31
2023-04-19T12:21:06.813Z,102389.72
2023-04-19T12:22:25.811Z,102230.25
2023-04-19T12:23:40.268Z,102388.84
2023-04-19T12:26:10.177Z,102391.19
2023-04-19T12:27:40.626Z,102217.63
2023-04-19T12:28:39.576Z,102396.16
2023-04-19T12:31:10.049Z,102379.94
2023-04-19T12:32:55.608Z,102214.53
2023-04-19T12:33:39.663Z,102393.09
2023-04-19T12:36:08.443Z,102399.25
2023-04-19T12:38:10.971Z,102220.69
2023-04-19T12:38:39.369Z,102371.03
2023-04-19T12:41:09.820Z,102392.81
2023-04-19T12:43:25.596Z,102213.91
2023-04-19T12:43:38.583Z,102378.47
2023-04-19T12:46:07.331Z,102368.66
2023-04-19T12:48:35.773Z,102370.91
2023-04-19T12:48:40.791Z,102195.00
2023-04-19T12:51:04.053Z,102363.41
2023-04-19T12:53:33.388Z,102367.41
2023-04-19T12:53:55.799Z,102203.31
2023-04-19T12:56:03.729Z,102362.25
2023-04-19T12:58:33.674Z,102350.16
2023-04-19T12:59:10.775Z,102183.41
2023-04-19T13:01:03.109Z,102355.59
2023-04-19T13:03:33.493Z,102348.53
2023-04-19T13:04:25.912Z,102179.41
2023-04-19T13:06:03.560Z,102339.41
2023-04-19T13:08:43.432Z,102326.47
2023-04-19T13:09:41.855Z,102167.56
2023-04-19T13:11:15.196Z,102332.88
2023-04-19T13:13:45.514Z,102317.69
2023-04-19T13:14:56.795Z,102164.78
2023-04-19T13:16:15.120Z,102330.13
2023-04-19T13:18:45.276Z,102327.09
2023-04-19T13:20:11.740Z,102151.41
2023-04-19T13:21:15.878Z,102329.78
2023-04-19T13:23:51.243Z,102322.53
2023-04-19T13:25:26.816Z,102139.56
2023-04-19T13:26:23.475Z,102318.72
2023-04-19T13:28:52.269Z,102310.72
2023-04-19T13:30:41.798Z,102130.03
2023-04-19T13:31:22.625Z,102309.00
2023-04-19T13:33:52.558Z,102313.66
2023-04-19T13:35:56.562Z,102133.25
2023-04-19T13:36:21.970Z,102304.22
2023-04-19T13:38:52.349Z,102292.00
2023-04-19T13:41:11.602Z,102117.88
2023-04-19T13:41:22.244Z,102298.47
2023-04-19T13:43:51.738Z,102295.25
2023-04-19T13:46:21.050Z,102292.69
2023-04-19T13:48:51.396Z,102277.69
2023-04-19T13:51:21.720Z,102273.72
2023-04-19T13:53:54.031Z,102262.78
2023-04-19T13:56:23.904Z,102276.81
2023-04-19T13:58:54.151Z,102271.44
2023-04-19T14:01:23.972Z,102275.50
2023-04-19T14:03:53.557Z,102271.03
2023-04-19T14:06:23.910Z,102273.47
2023-04-19T14:08:54.245Z,102260.97
2023-04-19T14:11:24.691Z,102245.94
2023-04-19T14:13:55.076Z,102255.84
2023-04-19T14:16:25.955Z,102241.59
2023-04-19T14:18:55.336Z,102245.53
2023-04-19T14:21:25.397Z,102245.06
2023-04-19T14:23:53.897Z,102243.91
2023-04-19T14:26:22.733Z,102234.88
2023-04-19T14:28:55.651Z,102237.53
2023-04-19T14:31:24.143Z,102230.09
2023-04-19T14:33:52.904Z,102219.50
2023-04-19T14:36:23.169Z,102215.50
2023-04-19T14:38:53.403Z,102221.34
2023-04-19T14:41:23.625Z,102214.19
2023-04-19T14:43:53.972Z,102207.72
2023-04-19T14:46:24.141Z,102202.28
2023-04-19T14:48:53.651Z,102196.66
2023-04-19T14:51:23.439Z,102207.16
2023-04-19T14:53:52.233Z,102208.16
2023-04-19T14:56:22.565Z,102194.66
2023-04-19T14:58:52.842Z,102189.34
2023-04-19T15:01:23.174Z,102188.19
2023-04-19T15:03:53.817Z,102192.03
2023-04-19T15:06:23.548Z,102194.75
2023-04-19T15:08:52.360Z,102185.91
2023-04-19T15:11:22.695Z,102180.31
2023-04-19T15:13:52.481Z,102182.59
2023-04-19T15:16:21.845Z,102189.94
2023-04-19T15:18:51.717Z,102178.56
2023-04-19T15:21:23.021Z,102185.34
2023-04-19T15:23:54.692Z,102178.81
2023-04-19T15:26:25.132Z,102166.91
2023-04-19T15:28:55.532Z,102174.03
2023-04-19T15:31:25.712Z,102168.94
2023-04-19T15:33:54.475Z,102173.16
2023-04-19T15:36:24.841Z,102172.41
2023-04-19T15:38:53.912Z,102174.13
2023-04-19T15:41:22.731Z,102155.75
2023-04-19T15:43:52.906Z,102176.50
2023-04-19T15:46:21.721Z,102166.19
2023-04-19T15:48:52.059Z,102155.91
2023-04-19T15:51:22.310Z,102157.25
2023-04-19T15:53:52.619Z,102157.19
2023-04-19T15:56:22.907Z,102154.94
2023-04-19T15:58:53.169Z,102147.72
2023-04-19T16:01:23.212Z,102160.56
2023-04-19T16:03:52.071Z,102161.22
2023-04-19T16:06:22.392Z,102160.38
2023-04-19T16:08:51.170Z,102150.28
2023-04-19T16:11:21.451Z,102147.19
2023-04-19T16:13:51.509Z,102139.25
2023-04-19T16:16:19.918Z,102150.31
2023-04-19T16:18:48.704Z,102151.16
2023-04-19T16:21:18.633Z,102142.47
2023-04-19T16:23:48.205Z,102133.09
2023-04-19T16:26:18.512Z,102128.00
2023-04-19T16:28:48.885Z,102131.56
2023-04-19T16:31:17.862Z,102132.91
2023-04-19T16:33:48.074Z,102135.69
2023-04-19T16:36:16.286Z,102127.00
2023-04-19T16:38:46.243Z,102126.19
2023-04-19T16:41:14.495Z,102131.34
2023-04-19T16:43:43.866Z,102127.53
2023-04-19T16:46:13.583Z,102133.19
2023-04-19T16:48:42.409Z,102132.75
2023-04-19T16:51:12.363Z,102126.97
2023-04-19T16:53:41.777Z,102131.91
2023-04-19T16:56:12.172Z,102132.97
2023-04-19T16:58:41.488Z,102125.72
2023-04-19T17:01:11.773Z,102124.56
2023-04-19T17:03:41.778Z,102120.97
2023-04-19T17:06:11.166Z,102125.91
2023-04-19T17:08:41.207Z,102109.38
2023-04-19T17:11:09.633Z,102111.88
2023-04-19T17:13:38.033Z,102110.94
2023-04-19T17:16:06.693Z,102111.22
2023-04-19T17:18:36.897Z,102107.59
2023-04-19T17:21:06.903Z,102108.13
2023-04-19T17:23:35.593Z,102112.06
2023-04-19T17:26:05.407Z,102110.16
2023-04-19T17:28:34.783Z,102108.72
2023-04-19T17:31:05.195Z,102116.56
2023-04-19T17:33:35.581Z,102117.59
2023-04-19T17:36:05.917Z,102109.31
2023-04-19T17:38:36.225Z,102118.63
2023-04-19T17:41:05.701Z,102104.97
2023-04-19T17:43:34.520Z,102109.41
2023-04-19T17:46:03.873Z,102113.84
2023-04-19T17:48:34.249Z,102114.84
2023-04-19T17:51:03.934Z,102106.59
2023-04-19T17:53:33.776Z,102125.16
2023-04-19T17:56:06.322Z,102110.09
2023-04-19T17:58:35.419Z,102111.09
2023-04-19T18:01:04.159Z,102118.94
2023-04-19T18:03:34.555Z,102113.34
2023-04-19T18:06:04.994Z,102109.53
2023-04-19T18:08:35.297Z,102118.06
2023-04-19T18:11:05.641Z,102118.56
2023-04-19T18:13:35.753Z,102116.19
2023-04-19T18:16:08.632Z,102113.31
2023-04-19T18:18:39.008Z,102120.41
2023-04-19T18:21:09.353Z,102120.88
2023-04-19T18:23:38.824Z,102121.41
2023-04-19T18:26:07.751Z,102123.13
2023-04-19T18:28:36.644Z,102137.78
2023-04-19T18:31:05.971Z,102142.19
2023-04-19T18:33:35.874Z,102140.03
2023-04-19T18:36:05.963Z,102138.34
2023-04-19T18:38:33.966Z,102139.38
2023-04-19T18:41:02.694Z,102148.63
2023-04-19T18:43:32.947Z,102145.75
2023-04-19T18:46:02.912Z,102145.50
2023-04-19T18:48:32.511Z,102145.31
2023-04-19T18:51:02.926Z,102151.69
2023-04-19T18:53:33.182Z,102155.56
2023-04-19T18:56:03.672Z,102153.94
2023-04-19T18:58:31.973Z,102158.34
2023-04-19T19:01:01.366Z,102156.16
2023-04-19T19:03:58.017Z,102173.25
2023-04-19T19:06:20.250Z,102170.31
2023-04-19T19:08:49.740Z,102174.22
2023-04-19T19:11:47.197Z,102188.13
2023-04-19T19:14:07.433Z,102189.88
2023-04-19T19:19:08.069Z,102189.41
2023-04-19T19:21:37.956Z,102185.78
2023-04-19T19:24:07.388Z,102204.53
2023-04-19T19:26:37.162Z,102190.94
2023-04-19T19:29:06.374Z,102194.09
2023-04-19T19:31:35.142Z,102205.31
2023-04-19T19:34:23.400Z,102196.31
2023-04-19T19:36:54.156Z,102200.25
2023-04-19T19:39:23.900Z,102203.41
2023-04-19T19:44:23.656Z,102217.09
2023-04-19T19:46:54.031Z,102220.78
2023-04-19T19:49:24.519Z,102217.84
2023-04-19T19:51:59.143Z,102221.78
2023-04-19T19:54:29.516Z,102225.69
2023-04-19T19:59:51.604Z,102217.66
2023-04-19T20:02:24.661Z,102226.94
2023-04-19T20:04:55.253Z,102224.75
2023-04-19T20:07:42.265Z,102232.53
2023-04-19T20:10:12.812Z,102235.00
2023-04-19T20:12:42.389Z,102237.47
2023-04-19T20:15:11.178Z,102247.47
2023-04-19T20:17:41.607Z,102237.22
2023-04-19T20:20:11.974Z,102244.53
2023-04-19T20:22:42.309Z,102242.34
2023-04-19T20:25:12.557Z,102258.41
2023-04-19T20:27:42.898Z,102255.50
2023-04-19T20:30:15.995Z,102253.34
2023-04-19T20:32:46.388Z,102256.50
2023-04-19T20:35:16.732Z,102260.38
2023-04-19T20:37:47.130Z,102258.94
2023-04-19T20:40:16.254Z,102253.38
2023-04-19T20:42:45.642Z,102254.09
2023-04-19T20:45:15.902Z,102253.84
2023-04-19T20:47:46.286Z,102249.00
2023-04-19T20:50:16.665Z,102251.44
2023-04-19T20:52:46.926Z,102263.41
2023-04-19T20:55:16.466Z,102267.28
2023-04-19T20:57:45.163Z,102249.78
2023-04-19T21:00:15.517Z,102245.63
2023-04-19T21:02:44.929Z,102249.53
2023-04-19T21:05:15.455Z,102249.28
2023-04-19T21:07:45.891Z,102249.28
2023-04-19T21:10:15.392Z,102245.19
2023-04-19T21:12:45.762Z,102249.81
2023-04-19T21:15:16.148Z,102245.69
2023-04-19T21:17:46.166Z,102248.84
2023-04-19T21:20:14.627Z,102243.47
2023-04-19T21:22:43.028Z,102252.75
2023-04-19T21:25:12.264Z,102252.75
2023-04-19T21:27:41.163Z,102247.66
2023-04-19T21:30:11.380Z,102248.38
2023-04-19T21:32:41.386Z,102247.66
2023-04-19T21:35:10.082Z,102245.47
2023-04-19T21:37:40.232Z,102244.03
2023-04-19T21:40:08.898Z,102247.19
2023-04-19T21:42:39.207Z,102246.50
2023-04-19T21:45:09.564Z,102245.00
2023-04-19T21:47:39.913Z,102242.09
2023-04-19T21:50:10.211Z,102247.44
2023-04-19T21:52:40.511Z,102248.69
2023-04-19T21:55:10.830Z,102240.69
2023-04-19T21:57:41.119Z,102248.47
2023-04-19T22:00:11.510Z,102248.47
2023-04-19T22:02:41.977Z,102240.22
2023-04-19T22:05:12.398Z,102247.50
2023-04-19T22:07:42.698Z,102244.09
2023-04-19T22:10:13.035Z,102251.38
2023-04-19T22:12:57.235Z,102242.63
2023-04-19T22:15:26.982Z,102241.16
2023-04-19T22:17:56.819Z,102243.63
2023-04-19T22:20:25.933Z,102246.28
2023-04-19T22:22:54.632Z,102246.06
2023-04-19T22:25:25.006Z,102241.44
2023-04-19T22:27:55.416Z,102235.34
2023-04-19T22:30:26.636Z,102231.25
2023-04-19T22:32:57.023Z,102244.63
2023-04-19T22:35:27.301Z,102231.25
2023-04-19T22:37:57.567Z,102240.22
2023-04-19T22:40:27.426Z,102234.88
2023-04-19T22:42:56.845Z,102236.59
2023-04-19T22:45:27.132Z,102234.66
2023-04-19T22:47:57.595Z,102238.31
2023-04-19T22:50:26.930Z,102238.31
2023-04-19T22:52:57.203Z,102236.88
2023-04-19T22:55:27.056Z,102235.41
2023-04-19T22:57:56.444Z,102241.97
2023-04-19T23:00:26.828Z,102236.63
2023-04-19T23:02:56.371Z,102227.16
2023-04-19T23:05:25.761Z,102225.72
2023-04-19T23:07:54.844Z,102226.91
2023-04-19T23:10:23.072Z,102218.91
2023-04-19T23:12:51.949Z,102222.81
2023-04-19T23:15:20.981Z,102216.00
2023-04-19T23:17:49.723Z,102224.03
2023-04-19T23:20:19.761Z,102214.56
2023-04-19T23:22:49.200Z,102217.72
2023-04-19T23:25:19.526Z,102212.38
2023-04-19T23:27:49.826Z,102208.97
2023-04-19T23:30:20.078Z,102204.84
2023-04-19T23:32:50.370Z,102208.75
2023-04-19T23:35:20.693Z,102202.66
2023-04-19T23:37:50.913Z,102205.84
2023-04-19T23:40:21.181Z,102201.22
2023-04-19T23:42:50.494Z,102195.16
2023-04-19T23:45:19.771Z,102199.75
2023-04-19T23:47:50.080Z,102192.94
2023-04-19T23:50:20.401Z,102189.56
2023-04-19T23:52:50.710Z,102188.09
2023-04-19T23:55:20.459Z,102182.75
2023-04-19T23:57:49.798Z,102179.31
